• Join FlightAware (Why Join?)
  • Login
  • US Flag 
11:26AM EDT


 

Airport Tracker/Info


-or-


 

Live Flight TrackerFlight Track Log ✈ ASA224 ✈ 08-Jun-2013 ✈ KSFO - MMPR / PVR

Flight Track Log - Related Links

Times and Time Zones

All times are in EDT time to prevent confusion due to time zone crossing. See the ASA224 flight status page for this flight to view local times or setup timezone preferences in your user account.

Time Position Orientation Groundspeed Altitude Reporting Facility
EDT Latitude Longitude Course Direction KTS MPH feet Rate Location/Type
01:46PM 37.6667 -122.3667 345° North 207 238 1,500  Level Northern Cal TRACON
01:47PM 37.7167 -122.3833 345° North 243 280 3,600 2,040 Climbing Northern Cal TRACON
01:48PM 37.7167 -122.4667 270° West 292 336 5,500 2,160 Climbing Northern Cal TRACON
01:49PM 37.6500 -122.5167 211° Southwest 295 339 7,900 2,280 Climbing Northern Cal TRACON
01:50PM 37.5944 -122.5228 185° South 299 344 9,500 1,620 Climbing Oakland Center
01:51PM 37.5064 -122.5297 184° South 313 360 10,900 1,320 Climbing Oakland Center
01:52PM 37.4039 -122.5394 184° South 360 414 12,300 1,620 Climbing Oakland Center
01:53PM 37.2958 -122.5464 183° South 383 441 14,300 1,920 Climbing Oakland Center
01:54PM 37.1836 -122.5539 183° South 401 461 16,300 1,920 Climbing Oakland Center
01:55PM 37.0447 -122.5661 184° South 415 478 18,300 1,860 Climbing Oakland Center
01:56PM 36.9242 -122.5692 181° South 430 495 20,200 1,740 Climbing Oakland Center
01:57PM 36.8064 -122.5342 167° South 431 496 21,900 1,500 Climbing Oakland Center
01:58PM 36.6869 -122.5008 167° South 438 504 23,300 1,380 Climbing Oakland Center
01:59PM 36.5789 -122.4319 153° Southeast 445 512 24,800 1,260 Climbing Oakland Center
02:00PM 36.4944 -122.3272 135° Southeast 428 493 25,900 1,080 Climbing Oakland Center
02:01PM 36.4064 -122.2169 135° Southeast 443 510 27,100 1,320 Climbing Oakland Center
02:02PM 36.3172 -122.1072 135° Southeast 450 518 28,700 1,620 Climbing Oakland Center
02:03PM 36.2136 -121.9786 135° Southeast 444 511 30,500 1,620 Climbing Oakland Center
02:04PM 36.1289 -121.8739 135° Southeast 435 501 32,100 1,200 Climbing Oakland Center
02:05PM 36.0464 -121.7744 136° Southeast 424 488 33,000 420 Climbing Oakland Center
02:06PM 35.9664 -121.6742 135° Southeast 412 474 33,000  Level Oakland Center
02:07PM 35.8858 -121.5747 135° Southeast 411 473 33,000  Level Oakland Center
02:08PM 35.8042 -121.4758 136° Southeast 412 474 33,000  Level Oakland Center
02:09PM 35.7058 -121.3594 136° Southeast 411 473 33,000  Level Oakland Center
02:10PM 35.6247 -121.2592 135° Southeast 413 475 33,000  Level Oakland Center
02:11PM 35.5442 -121.1608 135° Southeast 410 472 33,000  Level Oakland Center
02:12PM 35.4642 -121.0614 135° Southeast 412 474 33,000  Level Oakland Center
02:13PM 35.3900 -120.9456 128° Southeast 409 471 33,000  Level Los Angeles Center
02:14PM 35.3042 -120.8167 129° Southeast 408 470 33,000  Level Los Angeles Center
02:15PM 35.2319 -120.7086 129° Southeast 409 471 33,000  Level Los Angeles Center
02:16PM 35.1600 -120.6006 129° Southeast 410 472 33,000  Level Los Angeles Center
02:18PM 35.0892 -120.4933 129° Southeast 405 466 33,000  Level Los Angeles Center
02:19PM 35.0178 -120.3875 129° Southeast 402 463 33,000  Level Los Angeles Center
02:20PM 34.9469 -120.2803 129° Southeast 403 464 33,000  Level Los Angeles Center
02:21PM 34.8747 -120.1739 130° Southeast 404 465 33,000  Level Los Angeles Center
02:22PM 34.7864 -120.0447 130° Southeast 403 464 33,000  Level Los Angeles Center
02:23PM 34.7139 -119.9408 130° Southeast 404 465 33,000  Level Los Angeles Center
02:24PM 34.6417 -119.8364 130° Southeast 405 466 33,000  Level Los Angeles Center
02:25PM 34.5728 -119.7328 129° Southeast 404 465 33,000  Level Los Angeles Center
02:26PM 34.4997 -119.6289 130° Southeast 404 465 33,000  Level Los Angeles Center
02:27PM 34.4264 -119.5250 131° Southeast 405 466 33,000  Level Los Angeles Center
02:28PM 34.3397 -119.3992 130° Southeast 406 467 33,000  Level Los Angeles Center
02:29PM 34.2667 -119.2950 130° Southeast 406 467 33,000  Level Los Angeles Center
02:30PM 34.1939 -119.1892 130° Southeast 408 470 33,000  Level Los Angeles Center
02:31PM 34.1192 -119.0844 131° Southeast 413 475 33,000  Level Los Angeles Center
02:32PM 34.0453 -118.9783 130° Southeast 413 475 33,000  Level Los Angeles Center
02:33PM 33.9533 -118.8494 131° Southeast 422 486 33,000  Level Los Angeles Center
02:34PM 33.8769 -118.7411 130° Southeast 426 490 33,000  Level Los Angeles Center
02:35PM 33.7997 -118.6319 130° Southeast 429 494 33,000  Level Los Angeles Center
02:36PM 33.7219 -118.5250 131° Southeast 430 495 33,000  Level Los Angeles Center
02:37PM 33.6297 -118.3964 131° Southeast 435 501 33,000  Level Los Angeles Center
02:38PM 33.5536 -118.2883 130° Southeast 434 499 33,000  Level Los Angeles Center
02:39PM 33.4781 -118.1814 130° Southeast 428 493 33,000  Level Los Angeles Center
02:40PM 33.4017 -118.0747 131° Southeast 426 490 33,000  Level Los Angeles Center
02:41PM 33.3242 -117.9678 131° Southeast 427 491 33,000  Level Los Angeles Center
02:42PM 33.2461 -117.8611 131° Southeast 427 491 33,000  Level Los Angeles Center
02:43PM 33.1533 -117.7319 131° Southeast 428 493 33,000  Level Los Angeles Center
02:44PM 33.0756 -117.6256 131° Southeast 427 491 33,000  Level Los Angeles Center
02:45PM 32.9967 -117.5183 131° Southeast 429 494 33,000  Level Los Angeles Center
02:46PM 32.9178 -117.4119 131° Southeast 430 495 33,000  Level Los Angeles Center
02:48PM 32.8394 -117.3042 131° Southeast 431 496 33,000  Level Los Angeles Center
02:49PM 32.7542 -117.1947 133° Southeast 437 503 33,000  Level Los Angeles Center
02:50PM 32.6492 -117.0761 136° Southeast 437 503 33,000  Level Los Angeles Center
02:51PM 32.5597 -116.9767 137° Southeast 441 507 33,000  Level Los Angeles Center
02:53PM 32.4006 -116.7808 133° Southeast  Level FlightAware Approximate
03:00PM 31.8171 -116.0462 133° Southeast  Level FlightAware Approximate
03:01PM 31.7334 -115.9420 133° Southeast  Level FlightAware Approximate
03:02PM 31.6496 -115.8380 133° Southeast  Level FlightAware Approximate
03:03PM 31.5658 -115.7342 133° Southeast  Level FlightAware Approximate
03:04PM 31.4818 -115.6305 134° Southeast  Level FlightAware Approximate
03:05PM 31.3978 -115.5271 134° Southeast  Level FlightAware Approximate
03:06PM 31.3137 -115.4238 134° Southeast  Level FlightAware Approximate
03:07PM 31.2295 -115.3207 134° Southeast  Level FlightAware Approximate
03:08PM 31.1452 -115.2178 134° Southeast  Level FlightAware Approximate
03:09PM 31.0608 -115.1151 134° Southeast  Level FlightAware Approximate
03:10PM 30.9764 -115.0126 134° Southeast  Level FlightAware Approximate
03:11PM 30.8918 -114.9103 134° Southeast  Level FlightAware Approximate
03:12PM 30.8068 -114.8086 134° Southeast  Level FlightAware Approximate
03:13PM 30.7216 -114.7072 134° Southeast  Level FlightAware Approximate
03:14PM 30.6364 -114.6059 134° Southeast  Level FlightAware Approximate
03:15PM 30.5510 -114.5048 134° Southeast  Level FlightAware Approximate
03:16PM 30.4656 -114.4039 134° Southeast  Level FlightAware Approximate
03:17PM 30.3801 -114.3032 135° Southeast  Level FlightAware Approximate
03:18PM 30.2946 -114.2026 135° Southeast  Level FlightAware Approximate
03:19PM 30.2089 -114.1022 135° Southeast  Level FlightAware Approximate
03:20PM 30.1232 -114.0021 135° Southeast  Level FlightAware Approximate
03:21PM 30.0376 -113.9018 134° Southeast  Level FlightAware Approximate
03:22PM 29.9527 -113.8008 134° Southeast  Level FlightAware Approximate
03:23PM 29.8678 -113.7000 134° Southeast  Level FlightAware Approximate
03:24PM 29.7828 -113.5994 135° Southeast  Level FlightAware Approximate
03:25PM 29.6967 -113.5000 135° Southeast  Level FlightAware Approximate
03:26PM 29.6106 -113.4008 135° Southeast  Level FlightAware Approximate
03:27PM 29.5244 -113.3017 135° Southeast  Level FlightAware Approximate
03:28PM 29.4381 -113.2029 135° Southeast  Level FlightAware Approximate
03:29PM 29.3518 -113.1041 135° Southeast  Level FlightAware Approximate
03:30PM 29.2653 -113.0056 135° Southeast  Level FlightAware Approximate
03:31PM 29.1789 -112.9072 135° Southeast  Level FlightAware Approximate
03:32PM 29.0923 -112.8090 135° Southeast  Level FlightAware Approximate
03:33PM 29.0056 -112.7110 135° Southeast  Level FlightAware Approximate
03:34PM 28.9189 -112.6131 135° Southeast  Level FlightAware Approximate
03:35PM 28.8321 -112.5154 135° Southeast  Level FlightAware Approximate
03:36PM 28.7453 -112.4178 135° Southeast  Level FlightAware Approximate
03:37PM 28.6584 -112.3205 135° Southeast  Level FlightAware Approximate
03:38PM 28.5714 -112.2232 136° Southeast  Level FlightAware Approximate
03:39PM 28.4843 -112.1262 136° Southeast  Level FlightAware Approximate
03:40PM 28.3972 -112.0293 136° Southeast  Level FlightAware Approximate
03:41PM 28.3100 -111.9325 136° Southeast  Level FlightAware Approximate
03:42PM 28.2227 -111.8359 136° Southeast  Level FlightAware Approximate
03:43PM 28.1354 -111.7395 136° Southeast  Level FlightAware Approximate
03:44PM 28.0480 -111.6432 136° Southeast  Level FlightAware Approximate
03:45PM 27.9605 -111.5471 136° Southeast  Level FlightAware Approximate
03:46PM 27.8730 -111.4511 136° Southeast  Level FlightAware Approximate
03:47PM 27.7854 -111.3553 136° Southeast  Level FlightAware Approximate
03:48PM 27.6982 -111.2592 136° Southeast  Level FlightAware Approximate
03:49PM 27.6112 -111.1629 136° Southeast  Level FlightAware Approximate
03:50PM 27.5241 -111.0667 136° Southeast  Level FlightAware Approximate
03:51PM 27.4370 -110.9707 136° Southeast  Level FlightAware Approximate
03:52PM 27.3501 -110.8744 135° Southeast  Level FlightAware Approximate
03:53PM 27.2631 -110.7783 135° Southeast  Level FlightAware Approximate
03:54PM 27.1761 -110.6823 136° Southeast  Level FlightAware Approximate
03:55PM 27.0891 -110.5865 136° Southeast  Level FlightAware Approximate
03:56PM 27.0020 -110.4908 136° Southeast  Level FlightAware Approximate
03:57PM 26.9148 -110.3953 136° Southeast  Level FlightAware Approximate
03:58PM 26.8275 -110.2999 136° Southeast  Level FlightAware Approximate
03:59PM 26.7402 -110.2047 136° Southeast  Level FlightAware Approximate
04:00PM 26.6528 -110.1096 136° Southeast  Level FlightAware Approximate
04:01PM 26.5653 -110.0147 136° Southeast  Level FlightAware Approximate
04:02PM 26.4778 -109.9199 136° Southeast  Level FlightAware Approximate
04:03PM 26.3903 -109.8252 136° Southeast  Level FlightAware Approximate
04:04PM 26.3026 -109.7308 136° Southeast  Level FlightAware Approximate
04:05PM 26.2149 -109.6364 136° Southeast  Level FlightAware Approximate
04:06PM 26.1268 -109.5426 137° Southeast  Level FlightAware Approximate
04:07PM 26.0377 -109.4501 137° Southeast  Level FlightAware Approximate
04:08PM 25.9485 -109.3577 137° Southeast  Level FlightAware Approximate
04:09PM 25.8592 -109.2654 137° Southeast  Level FlightAware Approximate
04:10PM 25.7699 -109.1733 137° Southeast  Level FlightAware Approximate
04:11PM 25.6805 -109.0814 137° Southeast  Level FlightAware Approximate
04:12PM 25.5950 -108.9851 133° Southeast  Level FlightAware Approximate
04:13PM 25.5115 -108.8868 133° Southeast  Level FlightAware Approximate
04:14PM 25.4279 -108.7885 133° Southeast  Level FlightAware Approximate
04:15PM 25.3436 -108.6911 135° Southeast  Level FlightAware Approximate
04:16PM 25.2575 -108.5957 135° Southeast  Level FlightAware Approximate
04:17PM 25.1714 -108.5005 135° Southeast  Level FlightAware Approximate
04:18PM 25.0851 -108.4054 135° Southeast  Level FlightAware Approximate
04:19PM 24.9995 -108.3096 134° Southeast  Level FlightAware Approximate
04:20PM 24.9143 -108.2135 134° Southeast  Level FlightAware Approximate
04:21PM 24.8291 -108.1175 134° Southeast  Level FlightAware Approximate
04:22PM 24.7437 -108.0217 134° Southeast  Level FlightAware Approximate
04:23PM 24.6584 -107.9260 134° Southeast  Level FlightAware Approximate
04:24PM 24.5729 -107.8304 134° Southeast  Level FlightAware Approximate
04:25PM 24.4874 -107.7349 135° Southeast  Level FlightAware Approximate
04:26PM 24.4018 -107.6396 135° Southeast  Level FlightAware Approximate
04:27PM 24.3162 -107.5444 135° Southeast  Level FlightAware Approximate
04:28PM 24.2305 -107.4494 135° Southeast  Level FlightAware Approximate
04:29PM 24.1448 -107.3544 135° Southeast  Level FlightAware Approximate
04:30PM 24.0590 -107.2596 135° Southeast  Level FlightAware Approximate
04:31PM 23.9731 -107.1649 135° Southeast  Level FlightAware Approximate
04:32PM 23.8872 -107.0704 135° Southeast  Level FlightAware Approximate
04:33PM 23.8012 -106.9759 135° Southeast  Level FlightAware Approximate
04:34PM 23.7152 -106.8816 135° Southeast  Level FlightAware Approximate
04:35PM 23.6291 -106.7875 135° Southeast  Level FlightAware Approximate
04:36PM 23.5430 -106.6934 135° Southeast  Level FlightAware Approximate
04:37PM 23.4568 -106.5994 135° Southeast  Level FlightAware Approximate
04:38PM 23.3705 -106.5056 135° Southeast  Level FlightAware Approximate
04:39PM 23.2842 -106.4119 135° Southeast  Level FlightAware Approximate
04:40PM 23.1978 -106.3184 135° Southeast  Level FlightAware Approximate
04:41PM 23.0994 -106.2449 158° South  Level FlightAware Approximate
04:42PM 22.9860 -106.1962 158° South  Level FlightAware Approximate
04:43PM 22.8727 -106.1476 158° South  Level FlightAware Approximate
04:44PM 22.7593 -106.0991 158° South  Level FlightAware Approximate
04:45PM 22.6447 -106.0575 159° South  Level FlightAware Approximate
04:46PM 22.5310 -106.0101 159° South  Level FlightAware Approximate
04:47PM 22.4160 -105.9664 158° South  Level FlightAware Approximate
04:48PM 22.3033 -105.9163 158° South  Level FlightAware Approximate
04:49PM 22.1941 -105.8614 160° South  Level FlightAware Approximate
04:50PM 22.0795 -105.8165 160° South  Level FlightAware Approximate
04:51PM 21.9649 -105.7717 160° South  Level FlightAware Approximate
04:52PM 21.8504 -105.7269 160° South  Level FlightAware Approximate
04:53PM 21.7359 -105.6818 160° South  Level FlightAware Approximate
04:54PM 21.6214 -105.6368 160° South  Level FlightAware Approximate
04:55PM 21.5070 -105.5919 160° South  Level FlightAware Approximate
04:56PM 21.3926 -105.5467 157° South  Level FlightAware Approximate
04:57PM 21.2800 -105.4967 157° South  Level FlightAware Approximate
04:58PM 21.1667 -105.4486 159° South  Level FlightAware Approximate
04:59PM 21.0531 -105.4013 159° South  Level FlightAware Approximate
05:00PM 20.9389 -105.3556 160° South  Level FlightAware Approximate
05:01PM 20.8259 -105.3092 137° Southeast  Level FlightAware Approximate
05:02PM 20.7112 -105.2723 155° Southeast  Level FlightAware Approximate
05:03PM 20.6801 -105.2542 North  Level Estimated
05:04PM 20.6801 -105.2542 North  Level Estimated
05:05PM 20.6801 -105.2542 North  Level Estimated
05:06PM 20.6801 -105.2542 North  Level Estimated
05:07PM 20.6801 -105.2542 North  Level Estimated
05:08PM 20.6801 -105.2542 North  Level Estimated
05:09PM 20.6801 -105.2542 North  Level Estimated
05:10PM 20.6801 -105.2542 North  Level Estimated
05:11PM 20.6801 -105.2542 North  Level Estimated
05:12PM 20.6801 -105.2542 North  Level Estimated